Aérodrome :
LOGIN :

S'inscrire | Disclaimer

   EN    FR    IT 

 










Légende :    VFR   VFR Marginal   IFR   IFR Intensif   IFR Très Intensif
Visi : 
Plafond : 
>= 8 km
>= 3000ft
5 à 8 km
1000 à 3000 ft
1500m à 5 km
500 à 1000 ft
800 à 1500m
200 à 500 ft
< 800m
< 200 ft
Symboles :   Orages  Brouillard  Fortes neiges  Fortes précipitations  Vent > 20 kt
SIGMETs :   Divers  Orages  Givrage  Turbulence  Onde Orograph.  Cendres Volcan.






- Altitude de l'aérodrome : 499 ft
- Code IATA : TLS


LFBO - Toulouse / Blagnac

DERNIER METAR :
  • 190600Z AUTO 23004KT 200V260 9999 4400 OVC028 20/17 Q1012 NOSIG

METARs EXPIRÉS :
  • 190530Z AUTO 20004KT 9999 BKN027 OVC040 20/17 Q1012 NOSIG
  • 190500Z AUTO 14003KT 9999 BKN028 OVC039 20/17 Q1012 TEMPO BKN007
  • 190430Z AUTO 16004KT 9999 SCT026 BKN032 OVC039 20/17 Q1012 TEMPO BKN007
  • 190400Z AUTO 12003KT 9999 FEW020 BKN027 OVC033 20/17 Q1011 TEMPO BKN007
  • 190330Z AUTO VRB01KT 9999 BKN022 OVC032 20/17 Q1011 TEMPO BKN007
  • 190300Z AUTO VRB03KT 9999 SCT015 BKN023 OVC031 20/17 Q1011 TEMPO BKN007
  • 190230Z AUTO 30004KT 9999 BKN014 BKN027 19/17 Q1011 TEMPO BKN007
  • 190200Z AUTO VRB01KT 9999 BKN027 19/17 Q1011 TEMPO BKN007
  • 190130Z AUTO VRB03KT 9999 SCT026 19/17 Q1011 TEMPO BKN007

TAF TAF LFBO
Valide du 19 à 06h jusqu'au 20 à 12h UTC


190500Z 1906/2012 VRB03KT 9999 BKN025
BECMG 1911/1913 29005KT
BECMG 1913/1915 SCT030 BKN050
PROB30
TEMPO 1916/1919 -SHRA SCT025TCU BKN035
PROB40
TEMPO 1919/1922 4000 TSRA BKN035 SCT050CB
BECMG 1922/1924 BKN020
TEMPO 1922/2004 3000 RA BKN012 FEW060CB
PROB40
TEMPO 2005/2011 BKN011
ATIS : +33 5 62 74 66 36



MET'MAP, la Météo Aéronautique d'un coup d'oeil ! - Copyright ORBIFLY Décembre 2007 - Disclaimer

ORBIFLY MET'MAP TEAM :

Programmation & Développement : Alexandra Zaïnal
Sur une idée originale de : Baudouin d'Aumeries
Soutien technique & logistique : Manuel Goepfert
Assistance : Marc-Olivier Méhu




SOURCES & CREDITS :

   NOAA